Time;durP1;ratioP1;P1;durP2;ratioP2;P2;SDS_P1;SDS_P2;PMS_P1;PMS_P2;Temp;Humidity;BMP_temperature;BMP_pressure;BME280_temperature;BME280_humidity;BME280_pressure;Samples;Min_cycle;Max_cycle;Signal;HPM_P1;HPM_P2
2023/07/05 00:00:22;;;;;;;9.52;6.93;;;27.50;51.50;;;;;;5013755;28;20129;-74
2023/07/05 00:02:51;;;;;;;10.38;7.53;;;27.50;51.60;;;;;;5014369;28;20088;-75
2023/07/05 00:05:17;;;;;;;9.63;7.13;;;27.50;51.60;;;;;;5014082;28;20033;-74
2023/07/05 00:07:42;;;;;;;9.82;7.07;;;27.50;51.70;;;;;;5012553;28;20076;-74
2023/07/05 00:10:09;;;;;;;9.82;7.03;;;27.40;51.70;;;;;;5013288;28;20036;-74
2023/07/05 00:12:34;;;;;;;11.93;7.35;;;27.40;51.70;;;;;;5013173;28;20105;-73
2023/07/05 00:15:00;;;;;;;12.73;8.07;;;27.40;51.80;;;;;;5014098;28;20126;-73
2023/07/05 00:17:26;;;;;;;11.02;7.75;;;27.40;51.90;;;;;;5014217;28;20408;-73
2023/07/05 00:19:52;;;;;;;8.98;6.65;;;27.40;51.90;;;;;;5013646;28;20032;-74
2023/07/05 00:22:18;;;;;;;9.20;6.25;;;27.30;51.90;;;;;;5012195;28;20037;-74
2023/07/05 00:24:44;;;;;;;8.88;6.20;;;27.30;52.00;;;;;;5011875;28;20030;-74
2023/07/05 00:27:09;;;;;;;8.48;5.88;;;27.30;52.10;;;;;;5013439;28;20029;-74
2023/07/05 00:29:35;;;;;;;8.25;6.13;;;27.30;52.20;;;;;;5013708;28;20113;-75
2023/07/05 00:32:01;;;;;;;9.63;6.50;;;27.20;52.20;;;;;;5013933;28;20033;-75
2023/07/05 00:34:26;;;;;;;8.77;6.07;;;27.20;52.30;;;;;;5013420;28;20484;-74
2023/07/05 00:36:52;;;;;;;9.57;6.93;;;27.20;52.30;;;;;;5013099;28;20029;-75
2023/07/05 00:39:17;;;;;;;8.30;5.97;;;27.20;52.30;;;;;;5013201;28;20032;-75
2023/07/05 00:41:43;;;;;;;9.18;6.00;;;27.20;52.40;;;;;;5013077;28;20022;-75
2023/07/05 00:44:11;;;;;;;8.15;6.28;;;27.10;52.40;;;;;;5013553;28;20034;-74
2023/07/05 00:46:36;;;;;;;7.68;5.60;;;27.10;52.50;;;;;;5013246;28;20112;-74
2023/07/05 00:49:10;;;;;;;8.32;5.35;;;27.10;52.60;;;;;;5013501;28;20452;-75
2023/07/05 00:51:46;;;;;;;9.52;5.53;;;27.10;52.70;;;;;;5012754;28;20025;-75
2023/07/05 00:54:12;;;;;;;8.68;5.57;;;27.10;52.70;;;;;;5014228;28;20042;-75
2023/07/05 00:56:49;;;;;;;6.47;5.38;;;27.10;53.40;;;;;;5011805;28;20057;-74
2023/07/05 00:59:15;;;;;;;6.35;5.05;;;27.10;52.90;;;;;;5013387;28;20084;-75
2023/07/05 01:01:41;;;;;;;8.05;5.68;;;27.00;52.80;;;;;;5013032;28;20530;-74
2023/07/05 01:04:08;;;;;;;6.75;4.93;;;27.00;52.90;;;;;;5011988;28;20529;-75
2023/07/05 01:06:33;;;;;;;7.53;5.47;;;27.00;53.00;;;;;;5013956;28;20100;-74
2023/07/05 01:08:59;;;;;;;7.38;5.43;;;27.00;53.00;;;;;;5013489;28;20152;-74
2023/07/05 01:11:30;;;;;;;7.00;5.07;;;27.00;53.10;;;;;;5013291;28;20076;-74
2023/07/05 01:14:08;;;;;;;10.32;5.50;;;27.00;53.20;;;;;;5012894;28;20037;-74
2023/07/05 01:16:34;;;;;;;7.47;5.13;;;27.00;53.20;;;;;;5011480;28;20383;-74
2023/07/05 01:19:35;;;;;;;6.95;4.90;;;27.00;53.20;;;;;;5012790;28;20033;-75
2023/07/05 01:22:06;;;;;;;7.80;5.25;;;27.00;53.50;;;;;;5012829;28;20029;-74
2023/07/05 01:24:45;;;;;;;6.78;5.05;;;26.90;53.30;;;;;;5014360;28;20488;-74
2023/07/05 01:27:23;;;;;;;7.30;5.07;;;26.90;53.30;;;;;;5017294;28;20018;-75
2023/07/05 01:30:12;;;;;;;7.78;5.10;;;26.90;53.40;;;;;;5017511;28;20041;-75
2023/07/05 01:32:47;;;;;;;6.68;5.07;;;26.90;53.50;;;;;;5016574;28;20034;-75
2023/07/05 01:35:22;;;;;;;6.55;4.90;;;26.90;53.40;;;;;;5016419;28;20037;-75
2023/07/05 01:37:48;;;;;;;6.85;5.47;;;26.90;53.50;;;;;;5016365;28;20049;-73
2023/07/05 01:40:20;;;;;;;7.18;5.90;;;26.80;53.40;;;;;;5031645;28;20436;-74
2023/07/05 01:42:47;;;;;;;7.40;5.95;;;26.90;53.60;;;;;;5016724;28;20061;-74
2023/07/05 01:45:13;;;;;;;8.82;6.28;;;26.80;53.50;;;;;;5016252;28;20049;-75
2023/07/05 01:47:57;;;;;;;9.05;6.47;;;26.80;53.60;;;;;;5016200;28;20038;-75
2023/07/05 01:50:56;;;;;;;8.32;6.13;;;26.80;53.80;;;;;;5016697;28;20388;-74
2023/07/05 01:53:33;;;;;;;9.95;6.25;;;26.80;54.20;;;;;;5011996;28;20042;-75
2023/07/05 01:56:01;;;;;;;7.63;5.85;;;26.80;53.80;;;;;;5016157;28;20244;-73
2023/07/05 01:58:29;;;;;;;8.20;6.40;;;26.80;53.80;;;;;;5014735;28;20110;-74
2023/07/05 02:00:59;;;;;;;6.90;5.70;;;26.80;53.80;;;;;;5015963;28;20174;-74
2023/07/05 02:03:26;;;;;;;8.88;6.50;;;26.80;53.80;;;;;;5015829;28;20026;-74
2023/07/05 02:05:53;;;;;;;8.25;6.07;;;26.80;53.90;;;;;;5016134;28;20084;-75
2023/07/05 02:08:25;;;;;;;7.45;6.50;;;26.80;54.00;;;;;;5014467;28;20034;-75
2023/07/05 02:10:51;;;;;;;9.57;6.63;;;26.80;54.00;;;;;;5016135;28;20109;-75
2023/07/05 02:13:18;;;;;;;7.97;6.15;;;26.80;54.00;;;;;;5016173;28;20109;-74
2023/07/05 02:15:46;;;;;;;7.30;6.38;;;26.80;54.10;;;;;;5015994;28;20401;-74
2023/07/05 02:18:11;;;;;;;7.75;6.70;;;26.80;54.10;;;;;;5016046;28;20025;-74
2023/07/05 02:20:37;;;;;;;7.43;6.38;;;26.80;54.20;;;;;;5015668;28;20025;-74
2023/07/05 02:23:03;;;;;;;9.13;6.85;;;26.80;54.10;;;;;;5015626;28;20117;-75
2023/07/05 02:25:31;;;;;;;8.45;6.72;;;26.80;54.20;;;;;;5015743;28;20041;-75
2023/07/05 02:27:56;;;;;;;9.40;6.93;;;26.80;54.20;;;;;;5016796;28;20082;-74
2023/07/05 02:30:24;;;;;;;10.00;7.32;;;26.80;54.20;;;;;;5016313;28;20058;-74
2023/07/05 02:32:49;;;;;;;9.10;7.38;;;26.80;54.20;;;;;;5015975;28;20022;-74
2023/07/05 02:35:15;;;;;;;9.93;7.05;;;26.80;54.20;;;;;;5014857;28;20038;-74
2023/07/05 02:37:41;;;;;;;8.60;7.28;;;26.80;54.30;;;;;;5014321;28;20109;-75
2023/07/05 02:40:07;;;;;;;9.07;7.88;;;26.80;54.30;;;;;;5014998;28;20384;-75
2023/07/05 02:42:33;;;;;;;10.02;7.85;;;26.80;54.30;;;;;;5015704;28;20034;-75
2023/07/05 02:44:58;;;;;;;11.65;8.02;;;26.80;54.30;;;;;;5015623;28;20399;-75
2023/07/05 02:47:24;;;;;;;10.35;7.32;;;26.80;54.30;;;;;;5015960;28;20029;-75
2023/07/05 02:49:50;;;;;;;10.23;7.75;;;26.80;54.30;;;;;;5015396;28;20101;-75
2023/07/05 02:52:15;;;;;;;11.50;8.18;;;26.80;54.30;;;;;;5015151;28;20096;-74
2023/07/05 02:54:41;;;;;;;11.27;8.40;;;26.80;54.30;;;;;;5014735;28;20088;-74
2023/07/05 02:57:07;;;;;;;11.60;8.43;;;26.90;54.40;;;;;;5014809;28;20026;-74
2023/07/05 02:59:33;;;;;;;10.38;7.70;;;26.90;54.40;;;;;;5015412;28;20087;-74
2023/07/05 03:01:59;;;;;;;9.48;8.10;;;26.90;54.40;;;;;;5015041;28;20026;-75
2023/07/05 03:04:26;;;;;;;9.80;7.97;;;26.90;54.40;;;;;;5014584;28;20034;-74
2023/07/05 03:06:52;;;;;;;9.25;7.30;;;26.90;54.40;;;;;;5014697;28;20030;-74
2023/07/05 03:09:18;;;;;;;9.27;7.45;;;26.90;54.40;;;;;;5014676;28;20049;-74
2023/07/05 03:11:43;;;;;;;11.23;7.60;;;27.00;54.50;;;;;;5014843;28;20041;-74
2023/07/05 03:14:09;;;;;;;8.63;7.70;;;27.00;54.50;;;;;;5014777;28;20109;-74
2023/07/05 03:16:35;;;;;;;9.93;7.68;;;27.00;54.50;;;;;;5015618;28;20448;-74
2023/07/05 03:19:00;;;;;;;8.40;7.05;;;27.00;54.50;;;;;;5015236;28;20054;-74
2023/07/05 03:21:26;;;;;;;9.50;7.28;;;27.00;54.50;;;;;;5014995;28;20025;-75
2023/07/05 03:23:52;;;;;;;10.88;7.90;;;27.00;54.50;;;;;;5014964;28;20030;-74
2023/07/05 03:26:17;;;;;;;9.70;7.82;;;27.10;54.60;;;;;;5014971;28;20022;-74
2023/07/05 03:28:43;;;;;;;10.95;7.75;;;27.10;54.60;;;;;;5014394;28;20078;-74
2023/07/05 03:31:14;;;;;;;10.35;7.38;;;27.10;54.60;;;;;;5014582;28;20038;-74
2023/07/05 03:33:39;;;;;;;8.70;7.20;;;27.10;54.70;;;;;;5014948;28;20038;-74
2023/07/05 03:36:14;;;;;;;11.05;7.32;;;27.10;54.70;;;;;;5014695;28;20026;-74
2023/07/05 03:38:40;;;;;;;8.48;6.40;;;27.20;54.80;;;;;;5014968;28;21041;-74
2023/07/05 03:41:13;;;;;;;9.95;7.13;;;27.20;54.80;;;;;;5012938;28;20057;-74
2023/07/05 03:43:40;;;;;;;8.38;6.50;;;27.20;54.90;;;;;;5014739;28;20388;-75
2023/07/05 03:46:09;;;;;;;11.55;6.65;;;27.20;54.90;;;;;;5013047;28;20447;-75
2023/07/05 03:48:37;;;;;;;8.63;6.03;;;27.20;54.90;;;;;;5014410;28;20037;-75
2023/07/05 03:51:03;;;;;;;7.80;6.25;;;27.30;55.00;;;;;;5013100;28;20037;-75
2023/07/05 03:53:29;;;;;;;6.63;5.63;;;27.30;55.00;;;;;;5014291;28;20042;-74
2023/07/05 03:56:00;;;;;;;7.88;5.60;;;27.40;55.10;;;;;;5013727;28;20045;-74
2023/07/05 03:58:26;;;;;;;8.10;5.30;;;27.40;55.20;;;;;;5014046;28;20468;-74
2023/07/05 04:00:51;;;;;;;6.40;5.22;;;27.40;55.10;;;;;;5013583;28;20026;-75
2023/07/05 04:03:17;;;;;;;6.97;5.40;;;27.40;55.10;;;;;;5013700;28;20064;-74
2023/07/05 04:05:43;;;;;;;6.25;5.00;;;27.50;55.10;;;;;;5014367;28;20038;-75
2023/07/05 04:08:08;;;;;;;6.55;4.80;;;27.50;55.10;;;;;;5014367;28;20366;-75
2023/07/05 04:10:34;;;;;;;5.60;4.68;;;27.50;55.10;;;;;;5013841;28;20029;-75
2023/07/05 04:13:00;;;;;;;6.53;4.53;;;27.60;55.10;;;;;;5012342;28;20026;-75
2023/07/05 04:15:25;;;;;;;5.53;4.45;;;27.60;55.10;;;;;;5013318;28;20038;-75
2023/07/05 04:17:51;;;;;;;5.07;4.20;;;27.60;55.10;;;;;;5013232;28;20057;-75
2023/07/05 04:20:17;;;;;;;8.15;4.40;;;27.60;55.00;;;;;;5013893;28;20088;-75
2023/07/05 04:22:43;;;;;;;5.70;4.95;;;27.70;55.10;;;;;;5013196;28;20037;-75
2023/07/05 04:25:10;;;;;;;5.82;4.57;;;27.70;55.10;;;;;;5013438;28;20029;-75
2023/07/05 04:27:36;;;;;;;5.28;4.35;;;27.70;55.00;;;;;;5013265;28;20490;-74
2023/07/05 04:30:03;;;;;;;5.78;4.25;;;27.70;54.90;;;;;;5013209;28;20033;-74
2023/07/05 04:32:30;;;;;;;5.43;4.53;;;27.80;55.00;;;;;;5013875;28;20057;-74
2023/07/05 04:34:56;;;;;;;5.38;4.20;;;27.80;54.90;;;;;;5012513;28;20042;-75
2023/07/05 04:37:22;;;;;;;5.40;4.35;;;27.80;54.80;;;;;;5012297;28;20062;-74
2023/07/05 04:39:47;;;;;;;5.88;4.03;;;27.80;54.80;;;;;;5013206;28;20058;-75
2023/07/05 04:42:13;;;;;;;4.93;3.75;;;27.80;54.70;;;;;;5013363;28;20409;-75
2023/07/05 04:44:39;;;;;;;5.03;4.00;;;27.90;54.70;;;;;;5013388;28;20065;-74
2023/07/05 04:47:05;;;;;;;4.80;3.90;;;27.90;54.70;;;;;;5013308;28;20061;-74
2023/07/05 04:49:30;;;;;;;5.50;3.92;;;27.90;54.60;;;;;;5013575;28;20054;-74
2023/07/05 04:51:56;;;;;;;4.60;3.60;;;27.90;54.60;;;;;;5013427;28;20036;-75
2023/07/05 04:54:22;;;;;;;4.57;3.80;;;27.90;54.50;;;;;;5012816;28;20081;-74
2023/07/05 04:56:47;;;;;;;5.40;3.80;;;27.90;54.50;;;;;;5013849;28;20062;-75
2023/07/05 04:59:13;;;;;;;4.78;3.58;;;28.00;54.60;;;;;;5016446;28;20033;-75
2023/07/05 05:01:40;;;;;;;4.50;3.72;;;28.00;54.60;;;;;;5019587;28;20472;-74
2023/07/05 05:04:06;;;;;;;5.20;4.10;;;28.00;54.50;;;;;;5019398;28;20041;-74
2023/07/05 05:06:31;;;;;;;5.20;4.00;;;28.00;54.50;;;;;;5019729;28;20129;-75
2023/07/05 05:08:57;;;;;;;4.68;4.25;;;28.10;54.60;;;;;;5019324;28;20029;-75
2023/07/05 05:11:26;;;;;;;5.43;4.10;;;28.10;54.60;;;;;;5019576;28;20445;-75
2023/07/05 05:13:52;;;;;;;4.35;3.83;;;28.10;54.60;;;;;;5017842;28;20040;-75
2023/07/05 05:16:18;;;;;;;4.38;3.97;;;28.20;54.70;;;;;;5019282;28;20037;-74
2023/07/05 05:18:43;;;;;;;4.10;3.65;;;28.20;54.70;;;;;;5034368;28;20113;-74
2023/07/05 05:21:10;;;;;;;4.22;3.60;;;28.20;54.70;;;;;;5019353;28;20041;-74
2023/07/05 05:23:36;;;;;;;4.47;3.60;;;28.20;54.70;;;;;;5018050;28;20034;-74
2023/07/05 05:26:02;;;;;;;5.65;3.97;;;28.20;54.70;;;;;;5018103;28;20124;-74
2023/07/05 05:28:29;;;;;;;4.55;3.80;;;28.30;54.80;;;;;;5019788;28;20026;-74
2023/07/05 05:31:07;;;;;;;5.00;3.67;;;28.30;54.80;;;;;;5019907;28;20032;-74
2023/07/05 05:33:33;;;;;;;4.05;3.65;;;28.30;55.00;;;;;;5020387;28;20025;-75
2023/07/05 05:35:58;;;;;;;4.72;3.90;;;28.30;54.80;;;;;;5019592;28;20038;-75
2023/07/05 05:38:24;;;;;;;4.82;3.55;;;28.30;54.80;;;;;;5019520;28;20037;-75
2023/07/05 05:40:51;;;;;;;4.70;3.70;;;28.30;54.80;;;;;;5018770;28;20025;-73
2023/07/05 05:43:17;;;;;;;4.15;3.67;;;28.30;54.80;;;;;;5019239;28;20030;-75
2023/07/05 05:45:43;;;;;;;4.65;3.70;;;28.40;54.80;;;;;;5019137;28;20046;-75
2023/07/05 05:48:09;;;;;;;5.47;3.72;;;28.40;54.90;;;;;;5019109;28;20041;-75
2023/07/05 05:50:35;;;;;;;5.45;3.92;;;28.40;54.80;;;;;;5019176;28;20498;-75
2023/07/05 05:53:01;;;;;;;5.22;3.78;;;28.40;54.80;;;;;;5018735;28;20022;-75
2023/07/05 05:55:26;;;;;;;5.45;3.83;;;28.40;54.70;;;;;;5018750;28;20357;-75
2023/07/05 05:57:52;;;;;;;4.32;3.50;;;28.40;54.70;;;;;;5018525;28;20052;-75
2023/07/05 06:00:18;;;;;;;4.45;3.60;;;28.40;54.70;;;;;;5019184;28;20036;-75
2023/07/05 06:02:43;;;;;;;4.25;3.63;;;28.50;54.70;;;;;;5018767;28;20036;-75
2023/07/05 06:05:10;;;;;;;4.85;3.60;;;28.40;54.60;;;;;;5019141;28;20030;-75
2023/07/05 06:07:37;;;;;;;4.57;3.40;;;28.50;54.60;;;;;;5019702;28;20053;-75
2023/07/05 06:10:03;;;;;;;4.57;3.35;;;28.50;54.60;;;;;;5017331;28;20116;-75
2023/07/05 06:12:28;;;;;;;4.32;3.45;;;28.50;54.50;;;;;;5014926;28;20057;-75
2023/07/05 06:14:54;;;;;;;4.85;3.30;;;28.50;54.40;;;;;;5016166;28;20070;-75
2023/07/05 06:17:20;;;;;;;3.65;3.05;;;28.50;54.40;;;;;;5015871;28;20026;-75
2023/07/05 06:19:46;;;;;;;4.25;3.17;;;28.50;54.40;;;;;;5015862;28;20095;-75
2023/07/05 06:22:11;;;;;;;4.85;3.10;;;28.50;54.30;;;;;;5015851;28;20030;-75
2023/07/05 06:24:37;;;;;;;5.55;3.38;;;28.50;54.30;;;;;;5016139;28;20029;-75
2023/07/05 06:27:03;;;;;;;4.35;3.22;;;28.50;54.20;;;;;;5016204;28;20036;-75
2023/07/05 06:29:29;;;;;;;4.05;3.10;;;28.50;54.20;;;;;;5014891;28;20037;-75
2023/07/05 06:31:54;;;;;;;3.58;3.20;;;28.50;54.20;;;;;;5015941;28;20100;-75
2023/07/05 06:34:21;;;;;;;3.50;3.20;;;28.60;54.20;;;;;;5015873;28;20062;-75
2023/07/05 06:36:47;;;;;;;3.33;2.97;;;28.60;54.20;;;;;;5016003;28;20056;-75
2023/07/05 06:39:14;;;;;;;4.72;3.45;;;28.60;54.20;;;;;;5015771;28;20052;-75
2023/07/05 06:41:39;;;;;;;3.90;3.50;;;28.60;54.20;;;;;;5015959;28;20034;-75
2023/07/05 06:44:05;;;;;;;3.65;3.00;;;28.60;54.20;;;;;;5016448;28;20045;-75
2023/07/05 06:46:31;;;;;;;4.20;3.40;;;28.60;54.20;;;;;;5015634;28;20058;-75
2023/07/05 06:48:57;;;;;;;3.65;3.28;;;28.60;54.20;;;;;;5016098;28;20022;-75
2023/07/05 06:51:24;;;;;;;4.13;3.47;;;28.60;54.20;;;;;;5014636;28;20366;-75
2023/07/05 06:53:50;;;;;;;3.63;3.33;;;28.60;54.20;;;;;;5015501;28;20045;-75
2023/07/05 06:56:16;;;;;;;4.00;3.63;;;28.60;54.20;;;;;;5015263;28;20137;-75
2023/07/05 06:58:41;;;;;;;4.57;3.38;;;28.60;54.30;;;;;;5015615;28;20033;-75
2023/07/05 07:01:07;;;;;;;5.00;3.60;;;28.60;54.30;;;;;;5015378;28;20030;-73
2023/07/05 07:03:33;;;;;;;4.38;3.33;;;28.60;54.30;;;;;;5015616;28;20026;-75
2023/07/05 07:05:59;;;;;;;5.00;3.60;;;28.60;54.40;;;;;;5015374;28;20037;-75
2023/07/05 07:08:33;;;;;;;4.30;3.60;;;28.70;54.50;;;;;;5015219;28;20487;-75
2023/07/05 07:11:00;;;;;;;4.00;3.53;;;28.70;54.50;;;;;;5014025;28;20041;-75
2023/07/05 07:13:26;;;;;;;3.65;3.30;;;28.80;54.60;;;;;;5015201;28;20058;-75
2023/07/05 07:16:18;;;;;;;3.63;3.30;;;28.70;54.60;;;;;;5015291;28;20030;-75
2023/07/05 07:18:45;;;;;;;3.78;3.38;;;28.70;54.80;;;;;;5014278;28;20108;-75
2023/07/05 07:21:12;;;;;;;4.10;3.70;;;28.80;54.80;;;;;;5013734;28;20088;-75
2023/07/05 07:23:38;;;;;;;3.50;3.20;;;28.80;54.80;;;;;;5015337;28;20061;-75
2023/07/05 07:26:12;;;;;;;4.25;3.50;;;28.80;54.90;;;;;;5013733;28;20038;-75
2023/07/05 07:28:38;;;;;;;4.45;3.40;;;28.80;54.90;;;;;;5013771;28;20026;-75
2023/07/05 07:31:17;;;;;;;3.47;3.10;;;28.80;54.90;;;;;;5013467;28;20121;-75
2023/07/05 07:33:45;;;;;;;3.83;3.28;;;28.80;54.90;;;;;;5015289;28;20036;-75
2023/07/05 07:36:13;;;;;;;3.75;3.35;;;28.80;54.90;;;;;;5014724;28;20044;-74
2023/07/05 07:38:39;;;;;;;3.65;2.92;;;28.80;54.90;;;;;;5013295;28;20041;-75
2023/07/05 07:41:12;;;;;;;4.93;3.53;;;28.90;55.00;;;;;;5014898;28;20076;-74
2023/07/05 07:43:37;;;;;;;4.15;3.75;;;28.90;55.10;;;;;;5013819;28;20034;-74
2023/07/05 07:46:12;;;;;;;3.67;3.30;;;28.90;55.10;;;;;;5014861;28;20056;-75
2023/07/05 07:48:40;;;;;;;3.75;3.40;;;28.90;55.10;;;;;;5013417;28;20116;-74
2023/07/05 07:51:06;;;;;;;3.67;3.13;;;28.90;55.00;;;;;;5014614;28;20026;-75
2023/07/05 07:53:32;;;;;;;5.45;3.60;;;28.90;55.00;;;;;;5014512;28;20076;-74
2023/07/05 07:55:58;;;;;;;3.92;3.50;;;29.00;55.00;;;;;;5014434;28;20104;-75
2023/07/05 07:58:24;;;;;;;3.80;3.40;;;29.00;55.00;;;;;;5014697;28;20022;-75
2023/07/05 08:00:50;;;;;;;3.75;3.35;;;29.00;54.90;;;;;;5014392;28;20029;-75
2023/07/05 08:03:16;;;;;;;3.70;3.40;;;29.00;54.90;;;;;;5014624;28;20088;-75
2023/07/05 08:05:41;;;;;;;3.92;3.53;;;29.00;54.90;;;;;;5014691;28;20423;-75
2023/07/05 08:08:07;;;;;;;5.15;3.50;;;29.00;54.80;;;;;;5014613;28;20117;-74
2023/07/05 08:10:33;;;;;;;3.83;3.40;;;29.10;54.90;;;;;;5014359;28;20034;-74
2023/07/05 08:12:58;;;;;;;4.20;3.50;;;29.10;54.80;;;;;;5013925;28;20112;-74
2023/07/05 08:15:24;;;;;;;3.58;3.28;;;29.10;54.80;;;;;;5013944;28;20121;-75
2023/07/05 08:17:50;;;;;;;4.50;3.60;;;29.10;54.70;;;;;;5013802;28;20029;-74
2023/07/05 08:20:16;;;;;;;4.10;3.63;;;29.10;54.70;;;;;;5013867;28;20029;-75
2023/07/05 08:22:42;;;;;;;3.78;3.40;;;29.10;54.60;;;;;;5014373;28;20033;-74
2023/07/05 08:25:08;;;;;;;3.53;3.22;;;29.10;54.60;;;;;;5014029;28;20033;-74
2023/07/05 08:27:33;;;;;;;3.72;3.38;;;29.10;54.50;;;;;;5013964;28;20034;-74
2023/07/05 08:29:59;;;;;;;4.20;3.40;;;29.10;54.50;;;;;;5013752;28;20034;-74
2023/07/05 08:32:25;;;;;;;4.68;3.40;;;29.20;54.50;;;;;;5028813;28;20022;-75
2023/07/05 08:34:50;;;;;;;6.18;3.58;;;29.20;54.50;;;;;;5013284;28;20045;-75
2023/07/05 08:37:16;;;;;;;3.75;3.20;;;29.20;54.40;;;;;;5013827;28;20048;-74
2023/07/05 08:39:42;;;;;;;3.80;3.20;;;29.20;54.40;;;;;;5013875;28;20075;-75
2023/07/05 08:42:17;;;;;;;4.85;3.20;;;29.20;54.40;;;;;;5013698;28;20471;-75
2023/07/05 08:45:15;;;;;;;3.90;3.50;;;29.20;54.30;;;;;;5013749;28;20073;-75
2023/07/05 08:47:47;;;;;;;3.55;3.15;;;29.20;54.10;;;;;;5006248;28;20041;-75
2023/07/05 08:50:22;;;;;;;3.85;3.22;;;29.20;54.10;;;;;;5013839;28;20022;-75
2023/07/05 08:52:50;;;;;;;4.13;3.30;;;29.20;54.00;;;;;;5013972;28;20034;-75
2023/07/05 08:55:23;;;;;;;3.47;3.17;;;29.30;54.00;;;;;;5013787;28;20026;-75
2023/07/05 08:57:54;;;;;;;3.95;3.05;;;29.30;54.00;;;;;;5014498;28;20038;-75
2023/07/05 09:00:45;;;;;;;3.72;3.00;;;29.30;53.80;;;;;;5012254;28;20030;-75
2023/07/05 09:03:12;;;;;;;3.33;3.03;;;29.30;53.70;;;;;;5012296;28;20026;-75
2023/07/05 09:05:49;;;;;;;3.65;3.05;;;29.30;53.70;;;;;;5013498;28;20034;-75
2023/07/05 09:08:22;;;;;;;3.20;2.90;;;29.30;53.60;;;;;;5013612;28;20057;-75
2023/07/05 09:10:54;;;;;;;3.67;2.97;;;29.30;53.50;;;;;;5013628;28;20424;-75
2023/07/05 09:13:32;;;;;;;4.30;3.00;;;29.30;53.40;;;;;;5013598;28;20283;-75
2023/07/05 09:16:06;;;;;;;3.88;3.08;;;29.30;53.30;;;;;;5013020;28;20495;-75
2023/07/05 09:18:54;;;;;;;4.38;3.20;;;29.30;53.10;;;;;;5013755;28;20416;-75
2023/07/05 09:21:20;;;;;;;3.35;3.05;;;29.40;53.00;;;;;;5013744;28;20017;-75
2023/07/05 09:23:55;;;;;;;3.95;2.90;;;29.40;53.10;;;;;;5013322;28;20519;-75
2023/07/05 09:26:29;;;;;;;3.60;3.28;;;29.40;53.00;;;;;;5013332;28;20033;-75
2023/07/05 09:29:17;;;;;;;2.90;2.65;;;29.40;52.90;;;;;;5012123;28;20076;-75
2023/07/05 09:31:44;;;;;;;2.80;2.60;;;29.50;52.90;;;;;;5013195;28;20117;-75
2023/07/05 09:34:47;;;;;;;3.35;2.90;;;29.50;52.80;;;;;;5013135;28;20112;-75
2023/07/05 09:37:23;;;;;;;3.30;3.00;;;29.50;52.70;;;;;;5013228;28;20038;-75
2023/07/05 09:40:22;;;;;;;3.08;2.70;;;29.50;52.60;;;;;;5013324;28;20061;-75
2023/07/05 09:42:59;;;;;;;3.28;2.90;;;29.50;52.50;;;;;;5013253;28;20451;-75
2023/07/05 09:45:26;;;;;;;2.55;2.35;;;29.60;52.50;;;;;;5012953;28;20050;-76
2023/07/05 09:47:59;;;;;;;4.10;2.75;;;29.50;52.40;;;;;;5016931;28;20061;-75
2023/07/05 09:50:25;;;;;;;3.13;2.80;;;29.60;52.30;;;;;;5016794;28;20375;-75
2023/07/05 09:52:55;;;;;;;2.65;2.45;;;29.60;52.30;;;;;;5016544;28;20388;-75
2023/07/05 09:55:21;;;;;;;3.00;2.70;;;29.60;52.20;;;;;;5015290;28;20583;-75
2023/07/05 09:57:47;;;;;;;2.92;2.63;;;29.70;52.10;;;;;;5016572;28;20113;-75
2023/07/05 10:00:32;;;;;;;2.95;2.75;;;29.70;52.10;;;;;;5016235;28;20104;-75
2023/07/05 10:03:14;;;;;;;3.03;2.72;;;29.70;51.90;;;;;;5015601;28;20037;-75
2023/07/05 10:05:53;;;;;;;3.20;2.90;;;29.70;51.90;;;;;;5016845;28;20453;-76
2023/07/05 10:08:21;;;;;;;3.05;2.75;;;29.80;52.60;;;;;;5016815;28;20026;-75
2023/07/05 10:10:48;;;;;;;4.53;2.95;;;29.80;52.00;;;;;;5031312;28;20033;-76
2023/07/05 10:13:20;;;;;;;3.20;2.90;;;29.80;51.90;;;;;;5016456;28;20475;-74
2023/07/05 10:15:48;;;;;;;3.33;2.88;;;29.80;51.90;;;;;;5015974;28;20083;-74
2023/07/05 10:18:30;;;;;;;3.15;2.88;;;29.80;51.80;;;;;;5016622;28;20112;-75
2023/07/05 10:21:03;;;;;;;2.95;2.72;;;29.80;51.60;;;;;;5015294;28;20029;-75
2023/07/05 10:23:32;;;;;;;2.85;2.55;;;29.90;51.70;;;;;;5016110;28;20029;-75
2023/07/05 10:26:02;;;;;;;3.10;2.80;;;29.80;51.60;;;;;;5015887;28;20037;-75
2023/07/05 10:28:30;;;;;;;3.00;2.70;;;29.90;51.50;;;;;;5014783;28;20025;-76
2023/07/05 10:31:00;;;;;;;2.90;2.65;;;29.90;51.40;;;;;;5015815;28;20026;-75
2023/07/05 10:33:28;;;;;;;3.30;2.72;;;29.90;51.40;;;;;;5016129;28;20028;-74
2023/07/05 10:36:09;;;;;;;2.70;2.50;;;30.00;51.30;;;;;;5014862;28;20080;-74
2023/07/05 10:38:48;;;;;;;3.00;2.70;;;30.00;51.20;;;;;;5014949;28;20034;-74
2023/07/05 10:41:19;;;;;;;3.42;2.80;;;30.00;51.00;;;;;;5015058;28;20033;-75
2023/07/05 10:43:54;;;;;;;2.90;2.55;;;30.00;51.00;;;;;;5015109;28;20034;-75
2023/07/05 10:46:23;;;;;;;3.10;2.80;;;30.10;51.10;;;;;;5014904;28;20335;-75
2023/07/05 10:48:52;;;;;;;2.92;2.63;;;30.10;51.10;;;;;;5014691;28;20050;-75
2023/07/05 10:51:27;;;;;;;2.67;2.47;;;30.10;51.10;;;;;;5013310;28;20026;-75
2023/07/05 10:54:13;;;;;;;2.88;2.67;;;30.10;51.00;;;;;;5013119;28;20449;-74
2023/07/05 10:56:41;;;;;;;3.20;2.90;;;30.10;50.80;;;;;;5014324;28;20371;-74
2023/07/05 10:59:26;;;;;;;2.95;2.60;;;30.20;51.00;;;;;;5014525;28;20025;-75
2023/07/05 11:02:15;;;;;;;3.10;2.80;;;30.10;50.80;;;;;;5014322;28;20022;-75
2023/07/05 11:04:43;;;;;;;4.30;2.90;;;30.20;50.80;;;;;;5013554;28;20069;-75
2023/07/05 11:07:12;;;;;;;3.00;2.70;;;30.20;50.80;;;;;;5014665;28;20107;-75
2023/07/05 11:09:38;;;;;;;2.90;2.70;;;30.20;50.80;;;;;;5014374;28;20393;-75
2023/07/05 11:12:27;;;;;;;3.20;2.90;;;30.20;50.80;;;;;;5014102;28;20030;-75
2023/07/05 11:14:53;;;;;;;3.10;2.80;;;30.30;50.60;;;;;;5014025;28;20038;-76
2023/07/05 11:17:35;;;;;;;3.42;2.70;;;30.30;50.70;;;;;;5014733;28;20044;-76
2023/07/05 11:20:01;;;;;;;3.40;2.83;;;30.30;50.60;;;;;;5014404;28;20026;-76
2023/07/05 11:22:41;;;;;;;2.70;2.50;;;30.30;50.50;;;;;;5014191;28;20022;-76
2023/07/05 11:25:17;;;;;;;3.10;2.80;;;30.30;50.40;;;;;;5013906;28;20026;-76
2023/07/05 11:27:52;;;;;;;3.78;2.60;;;30.30;50.30;;;;;;5014451;28;20021;-76
2023/07/05 11:30:37;;;;;;;2.78;2.50;;;30.40;50.40;;;;;;5012746;28;20028;-75
2023/07/05 11:33:06;;;;;;;2.85;2.60;;;30.40;50.00;;;;;;5013992;28;20026;-74
2023/07/05 11:35:48;;;;;;;3.22;2.58;;;30.40;50.10;;;;;;5012218;28;20030;-75
2023/07/05 11:38:35;;;;;;;3.15;2.85;;;30.40;49.70;;;;;;5013838;28;20083;-75
2023/07/05 11:41:04;;;;;;;2.60;2.38;;;30.40;49.60;;;;;;5013745;28;20037;-74
2023/07/05 11:43:43;;;;;;;3.00;2.70;;;30.50;49.80;;;;;;5014120;28;20032;-75
2023/07/05 11:46:42;;;;;;;3.13;2.70;;;30.50;49.60;;;;;;5012139;28;20085;-76
2023/07/05 11:49:20;;;;;;;2.78;2.58;;;30.50;49.50;;;;;;5013750;28;20129;-75
2023/07/05 11:51:57;;;;;;;2.90;2.60;;;30.60;49.70;;;;;;5012538;28;20121;-75
2023/07/05 11:54:31;;;;;;;2.80;2.45;;;30.60;49.50;;;;;;5013492;28;20801;-75
2023/07/05 11:57:01;;;;;;;2.67;2.47;;;30.60;49.60;;;;;;5012645;28;20366;-75
2023/07/05 11:59:31;;;;;;;2.90;2.60;;;30.60;49.50;;;;;;5013427;28;20053;-75
2023/07/05 12:01:58;;;;;;;2.72;2.53;;;30.60;49.50;;;;;;5013630;28;20108;-74
2023/07/05 12:04:25;;;;;;;2.70;2.50;;;30.70;49.50;;;;;;5013368;28;20432;-75
2023/07/05 12:06:51;;;;;;;2.90;2.60;;;30.70;49.40;;;;;;5013242;28;20084;-75
2023/07/05 12:09:36;;;;;;;2.55;2.35;;;30.80;49.50;;;;;;5012515;28;20037;-75
2023/07/05 12:12:03;;;;;;;3.00;2.67;;;30.80;49.30;;;;;;5013410;28;20026;-75
2023/07/05 12:14:29;;;;;;;2.65;2.45;;;30.90;49.20;;;;;;5011843;28;20048;-75
2023/07/05 12:16:55;;;;;;;3.05;2.67;;;31.00;49.10;;;;;;5013000;28;20460;-76
2023/07/05 12:19:30;;;;;;;2.50;2.30;;;31.00;49.00;;;;;;5013049;28;20380;-75
2023/07/05 12:22:00;;;;;;;2.60;2.40;;;31.10;48.90;;;;;;5013242;28;20068;-75
2023/07/05 12:24:26;;;;;;;2.83;2.55;;;31.20;48.70;;;;;;5013639;28;20041;-76
2023/07/05 12:26:53;;;;;;;2.88;2.47;;;31.20;48.50;;;;;;5013208;28;20034;-76
2023/07/05 12:29:28;;;;;;;2.40;2.20;;;31.40;48.50;;;;;;5011787;28;20033;-76
2023/07/05 12:32:15;;;;;;;4.25;2.90;;;31.50;48.90;;;;;;5012854;28;20037;-76
2023/07/05 12:34:40;;;;;;;2.92;2.70;;;31.60;48.20;;;;;;5013187;28;20109;-76
2023/07/05 12:37:08;;;;;;;3.00;2.75;;;31.70;48.30;;;;;;5013260;28;20085;-76
2023/07/05 12:39:34;;;;;;;2.60;2.40;;;31.80;48.20;;;;;;5013146;28;20060;-76
2023/07/05 12:42:08;;;;;;;3.40;2.60;;;31.90;48.20;;;;;;5012655;28;20380;-76
2023/07/05 12:44:35;;;;;;;2.88;2.58;;;32.00;48.10;;;;;;5013675;28;20042;-76
2023/07/05 12:47:15;;;;;;;2.65;2.45;;;32.10;48.10;;;;;;5012951;28;20042;-76
2023/07/05 12:49:41;;;;;;;2.60;2.40;;;32.30;47.90;;;;;;5012934;28;20492;-75
2023/07/05 12:52:18;;;;;;;2.60;2.40;;;32.40;47.80;;;;;;5012795;28;20116;-76
2023/07/05 12:54:44;;;;;;;3.20;2.80;;;32.50;47.60;;;;;;5012539;28;20033;-75
2023/07/05 12:57:18;;;;;;;2.78;2.35;;;32.60;47.50;;;;;;5013512;28;20113;-75